sensor_id;sensor_type;location;lat;lon;timestamp;temperature;humidity
14529;DHT22;7351;51.194;4.098;2023-04-24T00:01:34;17.60;99.90
14529;DHT22;7351;51.194;4.098;2023-04-24T00:04:02;17.60;99.90
14529;DHT22;7351;51.194;4.098;2023-04-24T00:06:29;17.60;99.90
14529;DHT22;7351;51.194;4.098;2023-04-24T00:08:59;17.60;99.90
14529;DHT22;7351;51.194;4.098;2023-04-24T00:11:26;17.60;99.90
14529;DHT22;7351;51.194;4.098;2023-04-24T00:13:53;17.60;99.90
14529;DHT22;7351;51.194;4.098;2023-04-24T00:16:20;17.60;99.90
14529;DHT22;7351;51.194;4.098;2023-04-24T00:18:49;17.60;99.90
14529;DHT22;7351;51.194;4.098;2023-04-24T00:21:18;17.60;99.90
14529;DHT22;7351;51.194;4.098;2023-04-24T00:23:46;17.60;99.90
14529;DHT22;7351;51.194;4.098;2023-04-24T00:26:13;17.60;99.90
14529;DHT22;7351;51.194;4.098;2023-04-24T00:28:40;17.50;99.90
14529;DHT22;7351;51.194;4.098;2023-04-24T00:31:07;17.60;99.90
14529;DHT22;7351;51.194;4.098;2023-04-24T00:33:34;17.60;99.90
14529;DHT22;7351;51.194;4.098;2023-04-24T00:36:03;17.50;99.90
14529;DHT22;7351;51.194;4.098;2023-04-24T00:38:30;17.50;99.90
14529;DHT22;7351;51.194;4.098;2023-04-24T00:40:57;17.50;99.90
14529;DHT22;7351;51.194;4.098;2023-04-24T00:43:24;17.50;99.90
14529;DHT22;7351;51.194;4.098;2023-04-24T00:45:51;17.50;99.90
14529;DHT22;7351;51.194;4.098;2023-04-24T00:48:18;17.50;99.90
14529;DHT22;7351;51.194;4.098;2023-04-24T00:50:45;17.50;99.90
14529;DHT22;7351;51.194;4.098;2023-04-24T00:53:14;17.40;99.90
14529;DHT22;7351;51.194;4.098;2023-04-24T00:55:41;17.50;99.90
14529;DHT22;7351;51.194;4.098;2023-04-24T00:58:08;17.40;99.90
14529;DHT22;7351;51.194;4.098;2023-04-24T01:00:35;17.40;99.90
14529;DHT22;7351;51.194;4.098;2023-04-24T01:03:04;17.50;99.90
14529;DHT22;7351;51.194;4.098;2023-04-24T01:05:33;17.40;99.90
14529;DHT22;7351;51.194;4.098;2023-04-24T01:08:01;17.40;99.90
14529;DHT22;7351;51.194;4.098;2023-04-24T01:10:29;17.40;99.90
14529;DHT22;7351;51.194;4.098;2023-04-24T01:12:58;17.40;99.90
14529;DHT22;7351;51.194;4.098;2023-04-24T01:15:25;17.40;99.90
14529;DHT22;7351;51.194;4.098;2023-04-24T01:17:52;17.40;99.90
14529;DHT22;7351;51.194;4.098;2023-04-24T01:20:19;17.40;99.90
14529;DHT22;7351;51.194;4.098;2023-04-24T01:22:48;17.40;99.90
14529;DHT22;7351;51.194;4.098;2023-04-24T01:25:15;17.40;99.90
14529;DHT22;7351;51.194;4.098;2023-04-24T01:27:42;17.40;99.90
14529;DHT22;7351;51.194;4.098;2023-04-24T01:30:11;17.40;99.90
14529;DHT22;7351;51.194;4.098;2023-04-24T01:32:39;17.40;99.90
14529;DHT22;7351;51.194;4.098;2023-04-24T01:35:07;17.40;99.90
14529;DHT22;7351;51.194;4.098;2023-04-24T01:37:34;17.40;99.90
14529;DHT22;7351;51.194;4.098;2023-04-24T01:40:05;17.40;99.90
14529;DHT22;7351;51.194;4.098;2023-04-24T01:42:32;17.40;99.90
14529;DHT22;7351;51.194;4.098;2023-04-24T01:45:00;17.40;99.90
14529;DHT22;7351;51.194;4.098;2023-04-24T01:47:30;17.40;99.90
14529;DHT22;7351;51.194;4.098;2023-04-24T01:49:57;17.40;99.90
14529;DHT22;7351;51.194;4.098;2023-04-24T01:52:24;17.40;99.90
14529;DHT22;7351;51.194;4.098;2023-04-24T01:54:52;17.40;99.90
14529;DHT22;7351;51.194;4.098;2023-04-24T01:57:22;17.40;99.90
14529;DHT22;7351;51.194;4.098;2023-04-24T01:59:50;17.40;99.90
14529;DHT22;7351;51.194;4.098;2023-04-24T02:02:17;17.40;99.90
14529;DHT22;7351;51.194;4.098;2023-04-24T02:04:46;17.40;99.90
14529;DHT22;7351;51.194;4.098;2023-04-24T02:07:13;17.40;99.90
14529;DHT22;7351;51.194;4.098;2023-04-24T02:09:40;17.40;99.90
14529;DHT22;7351;51.194;4.098;2023-04-24T02:12:07;17.40;99.90
14529;DHT22;7351;51.194;4.098;2023-04-24T02:14:36;17.40;99.90
14529;DHT22;7351;51.194;4.098;2023-04-24T02:17:03;17.30;99.90
14529;DHT22;7351;51.194;4.098;2023-04-24T02:19:30;17.40;99.90
14529;DHT22;7351;51.194;4.098;2023-04-24T02:21:57;17.40;99.90
14529;DHT22;7351;51.194;4.098;2023-04-24T02:24:24;17.40;99.90
14529;DHT22;7351;51.194;4.098;2023-04-24T02:26:51;17.40;99.90
14529;DHT22;7351;51.194;4.098;2023-04-24T02:29:18;17.30;99.90
14529;DHT22;7351;51.194;4.098;2023-04-24T02:31:46;17.30;99.90
14529;DHT22;7351;51.194;4.098;2023-04-24T02:34:13;17.30;99.90
14529;DHT22;7351;51.194;4.098;2023-04-24T02:36:40;17.30;99.90
14529;DHT22;7351;51.194;4.098;2023-04-24T02:39:07;17.30;99.90
14529;DHT22;7351;51.194;4.098;2023-04-24T02:41:34;17.30;99.90
14529;DHT22;7351;51.194;4.098;2023-04-24T02:44:01;17.30;99.90
14529;DHT22;7351;51.194;4.098;2023-04-24T02:46:28;17.30;99.90
14529;DHT22;7351;51.194;4.098;2023-04-24T02:48:56;17.30;99.90
14529;DHT22;7351;51.194;4.098;2023-04-24T02:51:23;17.30;99.90
14529;DHT22;7351;51.194;4.098;2023-04-24T02:53:50;17.30;99.90
14529;DHT22;7351;51.194;4.098;2023-04-24T02:56:17;17.30;99.90
14529;DHT22;7351;51.194;4.098;2023-04-24T02:58:44;17.30;99.90
14529;DHT22;7351;51.194;4.098;2023-04-24T03:01:11;17.30;99.90
14529;DHT22;7351;51.194;4.098;2023-04-24T03:03:38;17.30;99.90
14529;DHT22;7351;51.194;4.098;2023-04-24T03:06:07;17.20;99.90
14529;DHT22;7351;51.194;4.098;2023-04-24T03:08:34;17.20;99.90
14529;DHT22;7351;51.194;4.098;2023-04-24T03:11:02;17.30;99.90
14529;DHT22;7351;51.194;4.098;2023-04-24T03:13:29;17.20;99.90
14529;DHT22;7351;51.194;4.098;2023-04-24T03:15:56;17.30;99.90
14529;DHT22;7351;51.194;4.098;2023-04-24T03:18:23;17.30;99.90
14529;DHT22;7351;51.194;4.098;2023-04-24T03:20:51;17.30;99.90
14529;DHT22;7351;51.194;4.098;2023-04-24T03:23:19;17.30;99.90
14529;DHT22;7351;51.194;4.098;2023-04-24T03:25:46;17.30;99.90
14529;DHT22;7351;51.194;4.098;2023-04-24T03:28:14;17.30;99.90
14529;DHT22;7351;51.194;4.098;2023-04-24T03:30:41;17.30;99.90
14529;DHT22;7351;51.194;4.098;2023-04-24T03:33:08;17.30;99.90
14529;DHT22;7351;51.194;4.098;2023-04-24T03:35:35;17.30;99.90
14529;DHT22;7351;51.194;4.098;2023-04-24T03:38:02;17.30;99.90
14529;DHT22;7351;51.194;4.098;2023-04-24T03:40:31;17.30;99.90
14529;DHT22;7351;51.194;4.098;2023-04-24T03:42:59;17.30;99.90
14529;DHT22;7351;51.194;4.098;2023-04-24T03:45:26;17.30;99.90
14529;DHT22;7351;51.194;4.098;2023-04-24T03:47:53;17.30;99.90
14529;DHT22;7351;51.194;4.098;2023-04-24T03:50:20;17.30;99.90
14529;DHT22;7351;51.194;4.098;2023-04-24T03:52:47;17.30;99.90
14529;DHT22;7351;51.194;4.098;2023-04-24T03:55:14;17.30;99.90
14529;DHT22;7351;51.194;4.098;2023-04-24T03:57:42;17.20;99.90
14529;DHT22;7351;51.194;4.098;2023-04-24T04:00:10;17.20;99.90
14529;DHT22;7351;51.194;4.098;2023-04-24T04:02:37;17.20;99.90
14529;DHT22;7351;51.194;4.098;2023-04-24T04:05:04;17.20;99.90
14529;DHT22;7351;51.194;4.098;2023-04-24T04:07:31;17.30;99.90
14529;DHT22;7351;51.194;4.098;2023-04-24T04:09:58;17.30;99.90
14529;DHT22;7351;51.194;4.098;2023-04-24T04:12:25;17.20;99.90
14529;DHT22;7351;51.194;4.098;2023-04-24T04:14:54;17.30;99.90
14529;DHT22;7351;51.194;4.098;2023-04-24T04:17:20;17.20;99.90
14529;DHT22;7351;51.194;4.098;2023-04-24T04:19:47;17.30;99.90
14529;DHT22;7351;51.194;4.098;2023-04-24T04:22:15;17.30;99.90
14529;DHT22;7351;51.194;4.098;2023-04-24T04:24:41;17.20;99.90
14529;DHT22;7351;51.194;4.098;2023-04-24T04:27:09;17.20;99.90
14529;DHT22;7351;51.194;4.098;2023-04-24T04:29:36;17.20;99.90
14529;DHT22;7351;51.194;4.098;2023-04-24T04:32:05;17.30;99.90
14529;DHT22;7351;51.194;4.098;2023-04-24T04:34:32;17.40;99.90
14529;DHT22;7351;51.194;4.098;2023-04-24T04:36:59;17.50;99.90
14529;DHT22;7351;51.194;4.098;2023-04-24T04:39:27;17.60;99.90
14529;DHT22;7351;51.194;4.098;2023-04-24T04:41:55;17.70;99.90
14529;DHT22;7351;51.194;4.098;2023-04-24T04:44:22;17.90;99.90
14529;DHT22;7351;51.194;4.098;2023-04-24T04:46:49;18.00;99.90
14529;DHT22;7351;51.194;4.098;2023-04-24T04:49:20;18.10;99.90
14529;DHT22;7351;51.194;4.098;2023-04-24T04:51:47;18.20;99.90
14529;DHT22;7351;51.194;4.098;2023-04-24T04:54:14;18.30;99.90
14529;DHT22;7351;51.194;4.098;2023-04-24T04:56:41;18.40;99.90
14529;DHT22;7351;51.194;4.098;2023-04-24T04:59:08;18.50;99.90
14529;DHT22;7351;51.194;4.098;2023-04-24T05:01:35;18.60;99.90
14529;DHT22;7351;51.194;4.098;2023-04-24T05:04:02;18.70;99.90
14529;DHT22;7351;51.194;4.098;2023-04-24T05:06:30;18.80;99.90
14529;DHT22;7351;51.194;4.098;2023-04-24T05:08:57;18.90;99.90
14529;DHT22;7351;51.194;4.098;2023-04-24T05:11:24;18.90;99.90
14529;DHT22;7351;51.194;4.098;2023-04-24T05:13:51;19.00;99.90
14529;DHT22;7351;51.194;4.098;2023-04-24T05:16:18;19.00;99.90
14529;DHT22;7351;51.194;4.098;2023-04-24T05:18:45;19.10;99.90
14529;DHT22;7351;51.194;4.098;2023-04-24T05:21:12;19.10;99.90
14529;DHT22;7351;51.194;4.098;2023-04-24T05:23:41;19.20;99.90
14529;DHT22;7351;51.194;4.098;2023-04-24T05:26:07;19.20;99.90
14529;DHT22;7351;51.194;4.098;2023-04-24T05:28:35;19.30;99.90
14529;DHT22;7351;51.194;4.098;2023-04-24T05:31:02;19.30;99.90
14529;DHT22;7351;51.194;4.098;2023-04-24T05:33:29;19.40;99.90
14529;DHT22;7351;51.194;4.098;2023-04-24T05:35:56;19.30;99.90
14529;DHT22;7351;51.194;4.098;2023-04-24T05:38:23;19.40;99.90
14529;DHT22;7351;51.194;4.098;2023-04-24T05:40:52;19.40;99.90
14529;DHT22;7351;51.194;4.098;2023-04-24T05:43:19;19.40;99.90
14529;DHT22;7351;51.194;4.098;2023-04-24T05:45:45;19.40;99.90
14529;DHT22;7351;51.194;4.098;2023-04-24T05:48:12;19.40;99.90
14529;DHT22;7351;51.194;4.098;2023-04-24T05:50:39;19.30;99.90
14529;DHT22;7351;51.194;4.098;2023-04-24T05:53:06;19.30;99.90
14529;DHT22;7351;51.194;4.098;2023-04-24T05:55:34;19.30;99.90
14529;DHT22;7351;51.194;4.098;2023-04-24T05:58:03;19.30;99.90
14529;DHT22;7351;51.194;4.098;2023-04-24T06:00:30;19.20;99.90
14529;DHT22;7351;51.194;4.098;2023-04-24T06:02:58;19.20;99.90
14529;DHT22;7351;51.194;4.098;2023-04-24T06:05:25;19.20;99.90
14529;DHT22;7351;51.194;4.098;2023-04-24T06:07:52;19.20;99.90
14529;DHT22;7351;51.194;4.098;2023-04-24T06:10:19;19.20;99.90
14529;DHT22;7351;51.194;4.098;2023-04-24T06:12:45;19.10;99.90
14529;DHT22;7351;51.194;4.098;2023-04-24T06:15:14;19.00;99.90
14529;DHT22;7351;51.194;4.098;2023-04-24T06:17:41;19.00;99.90
14529;DHT22;7351;51.194;4.098;2023-04-24T06:20:08;18.90;99.90
14529;DHT22;7351;51.194;4.098;2023-04-24T06:22:36;18.90;99.90
14529;DHT22;7351;51.194;4.098;2023-04-24T06:25:06;18.80;99.90
14529;DHT22;7351;51.194;4.098;2023-04-24T06:27:33;18.70;99.90
14529;DHT22;7351;51.194;4.098;2023-04-24T06:30:00;18.70;99.90
14529;DHT22;7351;51.194;4.098;2023-04-24T06:32:29;18.70;99.90
14529;DHT22;7351;51.194;4.098;2023-04-24T06:34:56;18.60;99.90
14529;DHT22;7351;51.194;4.098;2023-04-24T06:37:23;18.70;99.90
14529;DHT22;7351;51.194;4.098;2023-04-24T06:39:53;18.60;99.90
14529;DHT22;7351;51.194;4.098;2023-04-24T06:42:20;18.60;99.90
14529;DHT22;7351;51.194;4.098;2023-04-24T06:44:47;18.60;99.90
14529;DHT22;7351;51.194;4.098;2023-04-24T06:47:14;18.60;99.90
14529;DHT22;7351;51.194;4.098;2023-04-24T06:49:42;18.50;99.90
14529;DHT22;7351;51.194;4.098;2023-04-24T06:52:09;18.50;99.90
14529;DHT22;7351;51.194;4.098;2023-04-24T06:54:36;18.50;99.90
14529;DHT22;7351;51.194;4.098;2023-04-24T06:57:03;18.50;99.90
14529;DHT22;7351;51.194;4.098;2023-04-24T06:59:30;18.50;99.90
14529;DHT22;7351;51.194;4.098;2023-04-24T07:01:58;18.40;99.90
14529;DHT22;7351;51.194;4.098;2023-04-24T07:04:25;18.30;99.90
14529;DHT22;7351;51.194;4.098;2023-04-24T07:06:55;18.30;99.90
14529;DHT22;7351;51.194;4.098;2023-04-24T07:09:23;18.30;99.90
14529;DHT22;7351;51.194;4.098;2023-04-24T07:11:51;18.30;99.90
14529;DHT22;7351;51.194;4.098;2023-04-24T07:14:18;18.30;99.90
14529;DHT22;7351;51.194;4.098;2023-04-24T07:16:46;18.30;99.90
14529;DHT22;7351;51.194;4.098;2023-04-24T07:19:13;18.30;99.90
14529;DHT22;7351;51.194;4.098;2023-04-24T07:21:40;18.30;99.90
14529;DHT22;7351;51.194;4.098;2023-04-24T07:24:09;18.30;99.90
14529;DHT22;7351;51.194;4.098;2023-04-24T07:26:37;18.30;99.90
14529;DHT22;7351;51.194;4.098;2023-04-24T07:29:05;18.30;99.90
14529;DHT22;7351;51.194;4.098;2023-04-24T07:31:32;18.30;99.90
14529;DHT22;7351;51.194;4.098;2023-04-24T07:33:59;18.30;99.90
14529;DHT22;7351;51.194;4.098;2023-04-24T07:36:26;18.30;99.90
14529;DHT22;7351;51.194;4.098;2023-04-24T07:38:54;18.20;99.90
14529;DHT22;7351;51.194;4.098;2023-04-24T07:41:23;18.20;99.90
14529;DHT22;7351;51.194;4.098;2023-04-24T07:43:50;18.10;99.90
14529;DHT22;7351;51.194;4.098;2023-04-24T07:46:18;18.10;99.90
14529;DHT22;7351;51.194;4.098;2023-04-24T07:48:45;18.10;99.90
14529;DHT22;7351;51.194;4.098;2023-04-24T07:51:13;18.10;99.90
14529;DHT22;7351;51.194;4.098;2023-04-24T07:53:41;18.10;99.90
14529;DHT22;7351;51.194;4.098;2023-04-24T07:56:08;18.10;99.90
14529;DHT22;7351;51.194;4.098;2023-04-24T07:58:36;18.00;99.90
14529;DHT22;7351;51.194;4.098;2023-04-24T08:01:03;18.00;99.90
14529;DHT22;7351;51.194;4.098;2023-04-24T08:03:30;18.00;99.90
14529;DHT22;7351;51.194;4.098;2023-04-24T08:05:57;18.00;99.90
14529;DHT22;7351;51.194;4.098;2023-04-24T08:08:24;18.00;99.90
14529;DHT22;7351;51.194;4.098;2023-04-24T08:10:51;17.90;99.90
14529;DHT22;7351;51.194;4.098;2023-04-24T08:13:18;17.90;99.90
14529;DHT22;7351;51.194;4.098;2023-04-24T08:15:47;17.90;99.90
14529;DHT22;7351;51.194;4.098;2023-04-24T08:18:14;17.90;99.90
14529;DHT22;7351;51.194;4.098;2023-04-24T08:20:41;17.90;99.90
14529;DHT22;7351;51.194;4.098;2023-04-24T08:23:08;17.90;99.90
14529;DHT22;7351;51.194;4.098;2023-04-24T08:25:35;17.80;99.90
14529;DHT22;7351;51.194;4.098;2023-04-24T08:28:02;17.80;99.90
14529;DHT22;7351;51.194;4.098;2023-04-24T08:30:30;17.80;99.90
14529;DHT22;7351;51.194;4.098;2023-04-24T08:32:58;17.80;99.90
14529;DHT22;7351;51.194;4.098;2023-04-24T08:35:25;17.90;99.90
14529;DHT22;7351;51.194;4.098;2023-04-24T08:37:52;17.90;99.90
14529;DHT22;7351;51.194;4.098;2023-04-24T08:40:23;17.90;99.90
14529;DHT22;7351;51.194;4.098;2023-04-24T08:42:54;17.90;99.90
14529;DHT22;7351;51.194;4.098;2023-04-24T08:45:21;17.90;99.90
14529;DHT22;7351;51.194;4.098;2023-04-24T08:47:49;17.90;99.90
14529;DHT22;7351;51.194;4.098;2023-04-24T08:50:18;18.00;99.90
14529;DHT22;7351;51.194;4.098;2023-04-24T08:52:45;18.00;99.90
14529;DHT22;7351;51.194;4.098;2023-04-24T08:55:12;18.00;99.90
14529;DHT22;7351;51.194;4.098;2023-04-24T08:57:40;18.00;99.90
14529;DHT22;7351;51.194;4.098;2023-04-24T09:00:10;18.00;99.90
14529;DHT22;7351;51.194;4.098;2023-04-24T09:02:40;17.90;99.90
14529;DHT22;7351;51.194;4.098;2023-04-24T09:05:08;17.90;99.90
14529;DHT22;7351;51.194;4.098;2023-04-24T09:07:39;17.90;99.90
14529;DHT22;7351;51.194;4.098;2023-04-24T09:10:08;17.90;99.90
14529;DHT22;7351;51.194;4.098;2023-04-24T09:12:35;17.90;99.90
14529;DHT22;7351;51.194;4.098;2023-04-24T09:15:03;17.90;99.90
14529;DHT22;7351;51.194;4.098;2023-04-24T09:17:30;17.90;99.90
14529;DHT22;7351;51.194;4.098;2023-04-24T09:19:57;17.90;99.90
14529;DHT22;7351;51.194;4.098;2023-04-24T09:22:24;17.90;99.90
14529;DHT22;7351;51.194;4.098;2023-04-24T09:25:02;17.90;99.90
14529;DHT22;7351;51.194;4.098;2023-04-24T09:27:31;17.90;99.90
14529;DHT22;7351;51.194;4.098;2023-04-24T09:29:59;17.90;99.90
14529;DHT22;7351;51.194;4.098;2023-04-24T09:32:26;17.90;99.90
14529;DHT22;7351;51.194;4.098;2023-04-24T09:35:09;17.90;99.90
14529;DHT22;7351;51.194;4.098;2023-04-24T09:37:37;17.90;99.90
14529;DHT22;7351;51.194;4.098;2023-04-24T09:40:14;17.90;99.90
14529;DHT22;7351;51.194;4.098;2023-04-24T09:42:44;17.90;99.90
14529;DHT22;7351;51.194;4.098;2023-04-24T09:45:12;17.90;99.90
14529;DHT22;7351;51.194;4.098;2023-04-24T09:47:39;17.90;99.90
14529;DHT22;7351;51.194;4.098;2023-04-24T09:50:11;18.00;99.90
14529;DHT22;7351;51.194;4.098;2023-04-24T09:52:45;18.00;99.90
14529;DHT22;7351;51.194;4.098;2023-04-24T09:55:18;18.00;99.90
14529;DHT22;7351;51.194;4.098;2023-04-24T09:57:52;18.00;99.90
14529;DHT22;7351;51.194;4.098;2023-04-24T10:00:23;18.00;99.90
14529;DHT22;7351;51.194;4.098;2023-04-24T10:02:55;18.00;99.90
14529;DHT22;7351;51.194;4.098;2023-04-24T10:05:28;18.00;99.90
14529;DHT22;7351;51.194;4.098;2023-04-24T10:08:01;18.10;99.90
14529;DHT22;7351;51.194;4.098;2023-04-24T10:10:30;18.10;99.90
14529;DHT22;7351;51.194;4.098;2023-04-24T10:12:57;18.10;99.90
14529;DHT22;7351;51.194;4.098;2023-04-24T10:15:26;18.10;99.90
14529;DHT22;7351;51.194;4.098;2023-04-24T10:17:53;18.10;99.90
14529;DHT22;7351;51.194;4.098;2023-04-24T10:20:22;18.10;99.90
14529;DHT22;7351;51.194;4.098;2023-04-24T10:22:51;18.10;99.90
14529;DHT22;7351;51.194;4.098;2023-04-24T10:25:23;18.20;99.90
14529;DHT22;7351;51.194;4.098;2023-04-24T10:27:53;18.20;99.90
14529;DHT22;7351;51.194;4.098;2023-04-24T10:30:22;18.20;99.90
14529;DHT22;7351;51.194;4.098;2023-04-24T10:32:49;18.20;99.90
14529;DHT22;7351;51.194;4.098;2023-04-24T10:35:17;18.30;99.90
14529;DHT22;7351;51.194;4.098;2023-04-24T10:37:50;18.30;99.90
14529;DHT22;7351;51.194;4.098;2023-04-24T10:40:18;18.30;99.90
14529;DHT22;7351;51.194;4.098;2023-04-24T10:42:47;18.30;99.90
14529;DHT22;7351;51.194;4.098;2023-04-24T10:45:20;18.40;99.90
14529;DHT22;7351;51.194;4.098;2023-04-24T10:47:58;18.40;99.90
14529;DHT22;7351;51.194;4.098;2023-04-24T10:50:28;18.50;99.90
14529;DHT22;7351;51.194;4.098;2023-04-24T10:53:06;18.50;99.90
14529;DHT22;7351;51.194;4.098;2023-04-24T10:55:41;18.40;99.90
14529;DHT22;7351;51.194;4.098;2023-04-24T10:58:09;18.40;99.90
14529;DHT22;7351;51.194;4.098;2023-04-24T11:00:38;18.40;99.90
14529;DHT22;7351;51.194;4.098;2023-04-24T11:03:06;18.40;99.90
14529;DHT22;7351;51.194;4.098;2023-04-24T11:05:53;18.50;99.90
14529;DHT22;7351;51.194;4.098;2023-04-24T11:08:27;18.60;99.90
14529;DHT22;7351;51.194;4.098;2023-04-24T11:11:03;18.60;99.90
14529;DHT22;7351;51.194;4.098;2023-04-24T11:14:02;18.60;99.90
14529;DHT22;7351;51.194;4.098;2023-04-24T11:16:32;18.60;99.90
14529;DHT22;7351;51.194;4.098;2023-04-24T11:19:05;18.60;99.90
14529;DHT22;7351;51.194;4.098;2023-04-24T11:21:38;18.70;99.90
14529;DHT22;7351;51.194;4.098;2023-04-24T11:24:26;18.70;99.90
14529;DHT22;7351;51.194;4.098;2023-04-24T11:26:54;18.70;99.90
14529;DHT22;7351;51.194;4.098;2023-04-24T11:29:22;18.70;99.90
14529;DHT22;7351;51.194;4.098;2023-04-24T11:31:51;18.80;99.90
14529;DHT22;7351;51.194;4.098;2023-04-24T11:34:18;18.80;99.90
14529;DHT22;7351;51.194;4.098;2023-04-24T11:36:45;18.80;99.90
14529;DHT22;7351;51.194;4.098;2023-04-24T11:39:13;18.70;99.90
14529;DHT22;7351;51.194;4.098;2023-04-24T11:41:40;18.70;99.90
14529;DHT22;7351;51.194;4.098;2023-04-24T11:44:09;18.80;99.90
14529;DHT22;7351;51.194;4.098;2023-04-24T11:46:37;18.80;99.90
14529;DHT22;7351;51.194;4.098;2023-04-24T11:49:06;18.80;99.90
14529;DHT22;7351;51.194;4.098;2023-04-24T11:51:34;18.90;99.90
14529;DHT22;7351;51.194;4.098;2023-04-24T11:54:01;18.80;99.90
14529;DHT22;7351;51.194;4.098;2023-04-24T11:56:28;18.90;99.90
14529;DHT22;7351;51.194;4.098;2023-04-24T11:58:56;18.90;99.90
14529;DHT22;7351;51.194;4.098;2023-04-24T12:01:23;18.90;99.90
14529;DHT22;7351;51.194;4.098;2023-04-24T12:03:50;18.90;99.90
14529;DHT22;7351;51.194;4.098;2023-04-24T12:06:19;18.90;99.90
14529;DHT22;7351;51.194;4.098;2023-04-24T12:08:46;18.90;99.90
14529;DHT22;7351;51.194;4.098;2023-04-24T12:11:16;18.90;99.90
14529;DHT22;7351;51.194;4.098;2023-04-24T12:13:44;19.00;99.90
14529;DHT22;7351;51.194;4.098;2023-04-24T12:16:12;19.00;99.90
14529;DHT22;7351;51.194;4.098;2023-04-24T12:18:43;19.00;99.90
14529;DHT22;7351;51.194;4.098;2023-04-24T12:21:22;19.00;99.90
14529;DHT22;7351;51.194;4.098;2023-04-24T12:23:54;19.00;99.90
14529;DHT22;7351;51.194;4.098;2023-04-24T12:26:21;19.00;99.90
14529;DHT22;7351;51.194;4.098;2023-04-24T12:28:49;19.00;99.90
14529;DHT22;7351;51.194;4.098;2023-04-24T12:31:16;19.00;99.90
14529;DHT22;7351;51.194;4.098;2023-04-24T12:33:43;19.00;99.90
14529;DHT22;7351;51.194;4.098;2023-04-24T12:36:11;19.10;99.90
14529;DHT22;7351;51.194;4.098;2023-04-24T12:38:44;19.00;99.90
14529;DHT22;7351;51.194;4.098;2023-04-24T12:41:13;19.00;99.90
14529;DHT22;7351;51.194;4.098;2023-04-24T12:43:51;19.00;99.90
14529;DHT22;7351;51.194;4.098;2023-04-24T12:46:18;19.00;99.90
14529;DHT22;7351;51.194;4.098;2023-04-24T12:48:45;19.00;99.90
14529;DHT22;7351;51.194;4.098;2023-04-24T12:51:12;19.00;99.90
14529;DHT22;7351;51.194;4.098;2023-04-24T12:53:39;19.00;99.90
14529;DHT22;7351;51.194;4.098;2023-04-24T12:56:07;19.10;99.90
14529;DHT22;7351;51.194;4.098;2023-04-24T12:58:34;19.10;99.90
14529;DHT22;7351;51.194;4.098;2023-04-24T13:01:01;19.20;99.90
14529;DHT22;7351;51.194;4.098;2023-04-24T13:03:28;19.20;99.90
14529;DHT22;7351;51.194;4.098;2023-04-24T13:05:55;19.20;99.90
14529;DHT22;7351;51.194;4.098;2023-04-24T13:08:22;19.30;99.90
14529;DHT22;7351;51.194;4.098;2023-04-24T13:10:49;19.30;99.90
14529;DHT22;7351;51.194;4.098;2023-04-24T13:13:18;19.30;99.90
14529;DHT22;7351;51.194;4.098;2023-04-24T13:15:46;19.30;99.90
14529;DHT22;7351;51.194;4.098;2023-04-24T13:18:13;19.30;99.90
14529;DHT22;7351;51.194;4.098;2023-04-24T13:20:40;19.30;99.90
14529;DHT22;7351;51.194;4.098;2023-04-24T13:23:07;19.40;99.90
14529;DHT22;7351;51.194;4.098;2023-04-24T13:25:35;19.40;99.90
14529;DHT22;7351;51.194;4.098;2023-04-24T13:28:04;19.40;99.90
14529;DHT22;7351;51.194;4.098;2023-04-24T13:30:34;19.40;99.90
14529;DHT22;7351;51.194;4.098;2023-04-24T13:33:02;19.40;99.90
14529;DHT22;7351;51.194;4.098;2023-04-24T13:35:29;19.40;99.90
14529;DHT22;7351;51.194;4.098;2023-04-24T13:37:57;19.40;99.90
14529;DHT22;7351;51.194;4.098;2023-04-24T13:40:23;19.40;99.90
14529;DHT22;7351;51.194;4.098;2023-04-24T13:42:50;19.40;99.90
14529;DHT22;7351;51.194;4.098;2023-04-24T13:45:17;19.40;99.90
14529;DHT22;7351;51.194;4.098;2023-04-24T13:47:46;19.40;99.90
14529;DHT22;7351;51.194;4.098;2023-04-24T13:50:13;19.40;99.90
14529;DHT22;7351;51.194;4.098;2023-04-24T13:52:40;19.50;99.90
14529;DHT22;7351;51.194;4.098;2023-04-24T13:55:07;19.40;99.90
14529;DHT22;7351;51.194;4.098;2023-04-24T13:57:35;19.50;99.90
14529;DHT22;7351;51.194;4.098;2023-04-24T14:00:02;19.50;99.90
14529;DHT22;7351;51.194;4.098;2023-04-24T14:02:30;19.50;99.90
14529;DHT22;7351;51.194;4.098;2023-04-24T14:04:58;19.50;99.90
14529;DHT22;7351;51.194;4.098;2023-04-24T14:07:25;19.60;99.90
14529;DHT22;7351;51.194;4.098;2023-04-24T14:09:52;19.60;99.90
14529;DHT22;7351;51.194;4.098;2023-04-24T14:12:19;19.60;99.90
14529;DHT22;7351;51.194;4.098;2023-04-24T14:14:46;19.70;99.90
14529;DHT22;7351;51.194;4.098;2023-04-24T14:17:14;19.70;99.90
14529;DHT22;7351;51.194;4.098;2023-04-24T14:19:41;19.70;99.90
14529;DHT22;7351;51.194;4.098;2023-04-24T14:22:09;19.70;99.90
14529;DHT22;7351;51.194;4.098;2023-04-24T14:24:36;19.80;99.90
14529;DHT22;7351;51.194;4.098;2023-04-24T14:27:03;19.80;99.90
14529;DHT22;7351;51.194;4.098;2023-04-24T14:29:30;19.80;99.90
14529;DHT22;7351;51.194;4.098;2023-04-24T14:31:57;19.80;99.90
14529;DHT22;7351;51.194;4.098;2023-04-24T14:34:24;19.90;99.90
14529;DHT22;7351;51.194;4.098;2023-04-24T14:36:52;19.90;99.90
14529;DHT22;7351;51.194;4.098;2023-04-24T14:39:21;19.90;99.90
14529;DHT22;7351;51.194;4.098;2023-04-24T14:41:48;19.90;99.90
14529;DHT22;7351;51.194;4.098;2023-04-24T14:44:15;20.00;99.90
14529;DHT22;7351;51.194;4.098;2023-04-24T14:46:42;20.00;99.90
14529;DHT22;7351;51.194;4.098;2023-04-24T14:49:09;20.00;99.90
14529;DHT22;7351;51.194;4.098;2023-04-24T14:51:38;20.00;99.90
14529;DHT22;7351;51.194;4.098;2023-04-24T14:54:05;20.00;99.90
14529;DHT22;7351;51.194;4.098;2023-04-24T14:56:33;20.10;99.90
14529;DHT22;7351;51.194;4.098;2023-04-24T14:59:00;20.10;99.90
14529;DHT22;7351;51.194;4.098;2023-04-24T15:01:27;20.10;99.90
14529;DHT22;7351;51.194;4.098;2023-04-24T15:03:54;20.10;99.90
14529;DHT22;7351;51.194;4.098;2023-04-24T15:06:21;20.10;99.90
14529;DHT22;7351;51.194;4.098;2023-04-24T15:08:48;20.20;99.90
14529;DHT22;7351;51.194;4.098;2023-04-24T15:11:15;20.20;99.90
14529;DHT22;7351;51.194;4.098;2023-04-24T15:13:44;20.20;99.90
14529;DHT22;7351;51.194;4.098;2023-04-24T15:16:11;20.20;99.90
14529;DHT22;7351;51.194;4.098;2023-04-24T15:18:38;20.20;99.90
14529;DHT22;7351;51.194;4.098;2023-04-24T15:21:05;20.30;99.90
14529;DHT22;7351;51.194;4.098;2023-04-24T15:23:32;20.30;99.90
14529;DHT22;7351;51.194;4.098;2023-04-24T15:25:59;20.30;99.90
14529;DHT22;7351;51.194;4.098;2023-04-24T15:28:26;20.30;99.90
14529;DHT22;7351;51.194;4.098;2023-04-24T15:30:55;20.30;99.90
14529;DHT22;7351;51.194;4.098;2023-04-24T15:33:22;20.30;99.90
14529;DHT22;7351;51.194;4.098;2023-04-24T15:35:49;20.30;99.90
14529;DHT22;7351;51.194;4.098;2023-04-24T15:38:16;20.30;99.90
14529;DHT22;7351;51.194;4.098;2023-04-24T15:40:43;20.30;99.90
14529;DHT22;7351;51.194;4.098;2023-04-24T15:43:10;20.30;99.90
14529;DHT22;7351;51.194;4.098;2023-04-24T15:45:37;20.20;99.90
14529;DHT22;7351;51.194;4.098;2023-04-24T15:48:06;20.20;99.90
14529;DHT22;7351;51.194;4.098;2023-04-24T15:50:33;20.20;99.90